createdAt,value
2022-08-17T00:00:33.322Z,4.00
2022-08-17T00:03:04.039Z,3.50
2022-08-17T00:05:35.481Z,3.40
2022-08-17T00:08:02.891Z,3.90
2022-08-17T00:10:29.811Z,4.10
2022-08-17T00:12:59.780Z,3.80
2022-08-17T00:15:26.711Z,3.90
2022-08-17T00:17:53.577Z,3.90
2022-08-17T00:20:20.660Z,3.90
2022-08-17T00:23:15.155Z,3.70
2022-08-17T00:25:43.608Z,3.70
2022-08-17T00:28:10.369Z,3.50
2022-08-17T00:30:51.223Z,3.60
2022-08-17T00:33:27.225Z,3.30
2022-08-17T00:35:55.545Z,3.60
2022-08-17T00:38:23.909Z,3.70
2022-08-17T00:40:59.163Z,3.60
2022-08-17T00:43:33.522Z,3.50
2022-08-17T00:46:02.202Z,3.70
2022-08-17T00:48:30.826Z,3.70
2022-08-17T00:51:13.251Z,3.40
2022-08-17T00:53:47.758Z,3.70
2022-08-17T00:56:19.111Z,3.50
2022-08-17T00:58:45.883Z,3.50
2022-08-17T01:01:21.615Z,3.60
2022-08-17T01:03:51.973Z,3.70
2022-08-17T01:06:20.795Z,3.40
2022-08-17T01:08:57.366Z,3.60
2022-08-17T01:11:24.658Z,3.40
2022-08-17T01:13:51.382Z,4.10
2022-08-17T01:16:31.035Z,3.70
2022-08-17T01:19:02.370Z,3.70
2022-08-17T01:21:36.818Z,3.70
2022-08-17T01:24:04.582Z,3.70
2022-08-17T01:26:35.725Z,3.40
2022-08-17T01:29:04.976Z,3.70
2022-08-17T01:31:37.397Z,3.60
2022-08-17T01:34:09.366Z,4.40
2022-08-17T01:36:38.817Z,4.30
2022-08-17T01:39:09.831Z,4.10
2022-08-17T01:41:38.219Z,4.00
2022-08-17T01:44:07.902Z,3.70
2022-08-17T01:46:37.295Z,4.00
2022-08-17T01:49:10.369Z,3.70
2022-08-17T01:51:37.857Z,3.50
2022-08-17T01:54:10.475Z,3.50
2022-08-17T01:56:41.098Z,3.50
2022-08-17T01:59:07.961Z,3.50
2022-08-17T02:01:35.961Z,3.80
2022-08-17T02:04:03.509Z,3.70
2022-08-17T02:06:45.275Z,3.60
2022-08-17T02:09:20.027Z,3.70
2022-08-17T02:11:50.387Z,3.70
2022-08-17T02:14:18.242Z,3.60
2022-08-17T02:16:45.221Z,3.30
2022-08-17T02:19:15.815Z,3.60
2022-08-17T02:21:47.064Z,3.80
2022-08-17T02:24:58.322Z,3.60
2022-08-17T02:27:07.048Z,3.70
2022-08-17T02:29:33.823Z,3.60
2022-08-17T02:32:01.988Z,3.70
2022-08-17T02:34:29.414Z,4.00
2022-08-17T02:36:56.336Z,3.60
2022-08-17T02:39:23.171Z,3.90
2022-08-17T02:41:50.133Z,3.90
2022-08-17T02:44:39.268Z,4.80
2022-08-17T02:47:04.420Z,4.60
2022-08-17T02:49:31.547Z,4.60
2022-08-17T02:51:58.695Z,4.50
2022-08-17T02:54:41.442Z,4.80
2022-08-17T02:57:12.250Z,4.50
2022-08-17T02:59:41.014Z,5.30
2022-08-17T03:02:11.878Z,6.70
2022-08-17T03:04:39.230Z,6.40
2022-08-17T03:07:07.061Z,6.20
2022-08-17T03:09:34.061Z,6.60
2022-08-17T03:12:18.801Z,6.70
2022-08-17T03:14:45.614Z,6.20
2022-08-17T03:17:15.899Z,6.00
2022-08-17T03:19:45.092Z,6.10
2022-08-17T03:22:35.442Z,6.40
2022-08-17T03:24:58.714Z,6.30
2022-08-17T03:27:25.630Z,7.30
2022-08-17T03:29:52.490Z,6.60
2022-08-17T03:32:20.906Z,6.50
2022-08-17T03:34:47.967Z,6.40
2022-08-17T03:37:15.486Z,6.20
2022-08-17T03:39:43.347Z,6.60
2022-08-17T03:42:31.792Z,6.40
2022-08-17T03:45:01.585Z,6.50
2022-08-17T03:47:47.423Z,6.30
2022-08-17T03:50:34.027Z,6.10
2022-08-17T03:53:21.911Z,6.00
2022-08-17T03:56:07.471Z,5.80
2022-08-17T03:58:34.179Z,5.20
2022-08-17T04:01:01.058Z,4.80
2022-08-17T04:03:27.959Z,4.60
2022-08-17T04:05:54.718Z,4.50
2022-08-17T04:08:21.579Z,4.70
2022-08-17T04:10:48.950Z,4.40
2022-08-17T04:13:15.830Z,4.40
2022-08-17T04:15:52.309Z,4.20
2022-08-17T04:18:19.588Z,4.20
2022-08-17T04:20:46.448Z,4.30
2022-08-17T04:23:18.557Z,4.30
2022-08-17T04:25:49.285Z,3.90
2022-08-17T04:28:18.450Z,3.80
2022-08-17T04:30:47.588Z,3.80
2022-08-17T04:33:18.017Z,3.60
2022-08-17T04:35:50.330Z,3.50
2022-08-17T04:38:20.122Z,3.80
2022-08-17T04:41:06.523Z,3.90
2022-08-17T04:43:34.745Z,3.80
2022-08-17T04:46:05.830Z,3.70
2022-08-17T04:48:37.436Z,4.00
2022-08-17T04:51:08.342Z,4.00
2022-08-17T04:53:35.323Z,4.00
2022-08-17T04:56:02.385Z,4.20
2022-08-17T04:58:29.161Z,4.20
2022-08-17T05:00:55.929Z,4.80
2022-08-17T05:03:22.670Z,4.10
2022-08-17T05:05:49.849Z,3.80
2022-08-17T05:08:19.657Z,3.90
2022-08-17T05:10:47.904Z,4.30
2022-08-17T05:13:25.083Z,3.70
2022-08-17T05:15:57.413Z,3.80
2022-08-17T05:18:24.918Z,3.70
2022-08-17T05:20:52.508Z,4.10
2022-08-17T05:23:21.643Z,4.70
2022-08-17T05:25:51.763Z,4.30
2022-08-17T05:28:22.921Z,4.70
2022-08-17T05:30:55.882Z,4.50
2022-08-17T05:33:29.888Z,4.80
2022-08-17T05:35:58.952Z,4.50
2022-08-17T05:38:27.689Z,4.70
2022-08-17T05:40:55.872Z,4.70
2022-08-17T05:43:31.435Z,6.60
2022-08-17T05:45:58.068Z,11.80
2022-08-17T05:48:35.444Z,7.70
2022-08-17T05:51:45.411Z,7.20
2022-08-17T05:54:27.342Z,5.60
2022-08-17T05:57:07.697Z,4.60
2022-08-17T06:00:20.371Z,6.40
2022-08-17T06:03:05.307Z,8.00
2022-08-17T06:05:54.550Z,5.70
2022-08-17T06:08:32.245Z,4.90
2022-08-17T06:11:27.307Z,4.00
2022-08-17T06:14:16.359Z,4.70
2022-08-17T06:16:48.148Z,4.30
2022-08-17T06:19:33.755Z,4.70
2022-08-17T06:22:02.802Z,4.10
2022-08-17T06:24:50.234Z,3.90
2022-08-17T06:27:20.020Z,4.50
2022-08-17T06:29:57.009Z,4.70
2022-08-17T06:32:25.211Z,5.30
2022-08-17T06:34:53.501Z,4.70
2022-08-17T06:37:27.530Z,5.30
2022-08-17T06:40:12.412Z,5.20
2022-08-17T06:43:00.819Z,5.20
2022-08-17T06:45:42.841Z,4.00
2022-08-17T06:48:25.029Z,4.40
2022-08-17T06:51:10.759Z,3.90
2022-08-17T06:53:45.820Z,3.50
2022-08-17T06:56:22.218Z,3.70
2022-08-17T06:58:49.838Z,3.80
2022-08-17T07:01:27.179Z,3.60
2022-08-17T07:04:12.148Z,4.00
2022-08-17T07:06:51.598Z,3.90
2022-08-17T07:09:38.008Z,4.00
2022-08-17T07:12:18.838Z,4.40
2022-08-17T07:15:05.616Z,4.40
2022-08-17T07:17:46.447Z,4.20
2022-08-17T08:14:57.614Z,4.70
2022-08-17T08:17:31.093Z,4.30
2022-08-17T08:20:00.661Z,4.20
2022-08-17T08:22:59.878Z,3.80
2022-08-17T08:25:43.356Z,4.20
2022-08-17T08:28:21.526Z,4.30
2022-08-17T08:30:57.814Z,4.00
2022-08-17T08:33:29.760Z,3.30
2022-08-17T08:36:14.289Z,3.40
2022-08-17T08:39:06.711Z,3.00
2022-08-17T08:41:45.431Z,3.60
2022-08-17T08:45:00.282Z,3.40
2022-08-17T08:47:35.438Z,3.60
2022-08-17T08:50:38.159Z,3.10
2022-08-17T08:53:12.763Z,3.10
2022-08-17T08:55:52.054Z,3.30
2022-08-17T08:58:42.032Z,3.20
2022-08-17T09:01:30.516Z,3.10
2022-08-17T09:04:25.564Z,3.60
2022-08-17T09:07:39.545Z,2.90
2022-08-17T09:10:29.786Z,3.10
2022-08-17T09:13:09.624Z,3.00
2022-08-17T09:15:49.012Z,3.20
2022-08-17T09:19:00.039Z,3.20
2022-08-17T09:21:25.281Z,2.70
2022-08-17T09:24:25.803Z,2.40
2022-08-17T09:27:14.595Z,2.70
2022-08-17T09:29:59.800Z,2.40
2022-08-17T09:32:40.209Z,2.90
2022-08-17T09:35:20.974Z,3.00
2022-08-17T09:38:16.036Z,3.10
2022-08-17T09:41:00.161Z,2.80
2022-08-17T09:43:45.270Z,2.90
2022-08-17T09:46:20.711Z,3.00
2022-08-17T09:48:57.778Z,3.10
2022-08-17T09:51:40.322Z,2.80
2022-08-17T09:54:38.033Z,3.20
2022-08-17T09:57:29.893Z,2.60
2022-08-17T10:00:08.524Z,3.00
2022-08-17T10:03:00.677Z,3.10
2022-08-17T10:05:37.677Z,3.20
2022-08-17T10:08:10.472Z,3.50
2022-08-17T10:10:56.471Z,3.30
2022-08-17T10:13:41.778Z,2.70
2022-08-17T10:16:26.730Z,3.30
2022-08-17T10:19:02.240Z,2.80
2022-08-17T10:22:00.861Z,2.90
2022-08-17T10:25:23.759Z,2.40
2022-08-17T10:27:54.980Z,2.30
2022-08-17T10:30:26.847Z,2.40
2022-08-17T10:32:59.848Z,2.60
2022-08-17T10:35:36.456Z,2.70
2022-08-17T10:38:12.871Z,2.60
2022-08-17T10:41:17.391Z,2.60
2022-08-17T10:44:40.321Z,2.80
2022-08-17T10:46:57.258Z,2.50
2022-08-17T10:49:34.346Z,2.50
2022-08-17T10:52:22.000Z,2.30
2022-08-17T10:54:51.631Z,2.10
2022-08-17T10:57:37.366Z,2.30
2022-08-17T11:00:15.043Z,2.20
2022-08-17T11:02:48.897Z,2.30
2022-08-17T11:05:44.049Z,2.20
2022-08-17T11:08:46.037Z,2.20
2022-08-17T11:11:20.268Z,2.30
2022-08-17T11:13:49.696Z,2.40
2022-08-17T11:16:32.856Z,2.30
2022-08-17T11:19:26.641Z,2.50
2022-08-17T11:22:11.949Z,2.40
2022-08-17T11:24:51.852Z,2.50
2022-08-17T11:27:31.971Z,2.30
2022-08-17T11:30:07.387Z,2.20
2022-08-17T11:32:47.142Z,2.10
2022-08-17T11:35:20.837Z,2.30
2022-08-17T11:38:16.996Z,2.30
2022-08-17T11:41:01.936Z,2.50
2022-08-17T11:43:38.396Z,2.30
2022-08-17T11:46:57.942Z,2.00
2022-08-17T11:49:49.571Z,2.40
2022-08-17T11:52:40.999Z,3.10
2022-08-17T11:55:34.159Z,4.30
2022-08-17T11:58:23.434Z,3.10
2022-08-17T12:00:57.222Z,2.20
2022-08-17T12:03:34.576Z,2.20
2022-08-17T12:06:35.579Z,2.30
2022-08-17T12:09:11.064Z,1.90
2022-08-17T12:12:13.133Z,2.30
2022-08-17T12:17:50.258Z,2.10
2022-08-17T12:20:28.038Z,2.40
2022-08-17T12:23:18.941Z,2.50
2022-08-17T12:26:10.512Z,2.30
2022-08-17T12:28:44.036Z,2.70
2022-08-17T12:31:26.208Z,3.10
2022-08-17T12:33:53.247Z,2.50
2022-08-17T12:36:28.415Z,2.30
2022-08-17T12:39:14.877Z,2.40
2022-08-17T12:41:52.240Z,2.10
2022-08-17T12:44:23.347Z,2.70
2022-08-17T12:46:50.173Z,2.60
2022-08-17T12:49:41.604Z,1.90
2022-08-17T12:52:29.628Z,2.10
2022-08-17T12:55:02.150Z,2.40
2022-08-17T12:57:34.195Z,2.10
2022-08-17T13:00:16.830Z,2.50
2022-08-17T13:02:45.483Z,2.10
2022-08-17T13:05:23.012Z,3.20
2022-08-17T13:07:51.552Z,2.10
2022-08-17T13:10:27.419Z,2.40
2022-08-17T13:12:58.173Z,2.40
2022-08-17T13:15:38.410Z,2.50
2022-08-17T13:18:36.026Z,2.30
2022-08-17T13:21:02.916Z,2.40
2022-08-17T13:23:32.288Z,2.30
2022-08-17T13:26:08.089Z,2.50
2022-08-17T13:28:37.167Z,2.00
2022-08-17T13:31:33.233Z,1.90
2022-08-17T13:34:28.361Z,1.90
2022-08-17T13:37:30.329Z,2.20
2022-08-17T13:40:11.617Z,2.50
2022-08-17T13:42:50.411Z,2.50
2022-08-17T13:45:35.327Z,2.30
2022-08-17T13:48:15.994Z,2.30
2022-08-17T13:51:05.087Z,2.00
2022-08-17T13:53:34.103Z,2.20
2022-08-17T13:56:33.233Z,2.50
2022-08-17T13:59:36.092Z,2.30
2022-08-17T14:02:18.411Z,2.60
2022-08-17T14:04:47.315Z,2.30
2022-08-17T14:07:15.706Z,2.10
2022-08-17T14:09:57.444Z,2.50
2022-08-17T14:12:27.475Z,2.30
2022-08-17T14:14:56.561Z,2.10
2022-08-17T14:17:25.689Z,2.70
2022-08-17T14:19:53.035Z,2.20
2022-08-17T14:22:33.049Z,2.50
2022-08-17T14:25:04.107Z,2.70
2022-08-17T14:27:41.883Z,2.40
2022-08-17T14:30:30.311Z,2.30
2022-08-17T14:32:58.304Z,2.80
2022-08-17T14:35:28.285Z,2.50
2022-08-17T14:37:56.204Z,2.60
2022-08-17T14:40:25.211Z,2.90
2022-08-17T14:42:55.349Z,2.40
2022-08-17T14:45:31.838Z,2.20
2022-08-17T14:48:05.283Z,2.50
2022-08-17T14:50:35.512Z,2.40
2022-08-17T14:53:04.668Z,2.60
2022-08-17T14:55:32.700Z,2.30
2022-08-17T14:58:00.087Z,2.70
2022-08-17T15:00:28.784Z,2.70
2022-08-17T15:02:58.964Z,2.50
2022-08-17T15:05:31.763Z,2.40
2022-08-17T15:08:01.441Z,2.70
2022-08-17T15:10:29.432Z,3.10
2022-08-17T15:12:56.375Z,2.90
2022-08-17T15:15:24.285Z,2.90
2022-08-17T15:17:51.798Z,2.70
2022-08-17T15:20:23.994Z,3.00
2022-08-17T15:22:55.673Z,3.10
2022-08-17T15:25:24.836Z,3.10
2022-08-17T15:27:52.282Z,2.90
2022-08-17T15:30:20.339Z,2.70
2022-08-17T15:32:54.774Z,2.60
2022-08-17T15:35:27.995Z,2.80
2022-08-17T15:38:11.688Z,2.60
2022-08-17T15:40:42.822Z,2.80
2022-08-17T15:43:22.012Z,2.40
2022-08-17T15:46:12.421Z,2.60
2022-08-17T15:48:42.421Z,3.30
2022-08-17T15:51:19.899Z,2.70
2022-08-17T15:53:49.589Z,3.00
2022-08-17T15:56:19.911Z,3.00
2022-08-17T15:58:50.319Z,3.30
2022-08-17T16:03:01.640Z,3.20
2022-08-17T16:04:26.416Z,2.90
2022-08-17T16:06:53.877Z,3.00
2022-08-17T16:09:20.775Z,2.60
2022-08-17T16:11:52.161Z,3.50
2022-08-17T16:14:23.123Z,3.30
2022-08-17T16:16:51.120Z,2.90
2022-08-17T16:19:17.997Z,3.00
2022-08-17T16:21:44.896Z,3.20
2022-08-17T16:24:13.454Z,3.30
2022-08-17T16:26:41.659Z,3.80
2022-08-17T16:29:08.920Z,3.30
2022-08-17T16:31:41.960Z,3.40
2022-08-17T16:34:16.953Z,3.20
2022-08-17T16:36:55.491Z,3.40
2022-08-17T16:39:29.446Z,3.70
2022-08-17T16:41:57.170Z,3.60
2022-08-17T16:44:24.114Z,3.30
2022-08-17T16:46:51.586Z,3.30
2022-08-17T16:49:24.478Z,3.20
2022-08-17T16:52:04.502Z,3.20
2022-08-17T16:54:31.359Z,3.40
2022-08-17T16:56:58.157Z,3.30
2022-08-17T16:59:32.280Z,3.50
2022-08-17T17:02:12.615Z,3.20
2022-08-17T17:04:48.645Z,3.50
2022-08-17T17:07:58.935Z,3.10
2022-08-17T17:10:44.846Z,3.20
2022-08-17T17:13:20.198Z,3.80
2022-08-17T17:16:01.126Z,3.60
2022-08-17T17:18:46.462Z,3.60
2022-08-17T17:21:17.178Z,4.00
2022-08-17T17:24:01.880Z,3.80
2022-08-17T17:26:34.668Z,3.50
2022-08-17T17:29:47.880Z,3.40
2022-08-17T17:32:34.839Z,3.80
2022-08-17T17:35:09.941Z,3.20
2022-08-17T17:37:40.445Z,3.80
2022-08-17T17:40:21.681Z,3.60
2022-08-17T17:42:53.282Z,4.10
2022-08-17T17:45:31.518Z,3.70
2022-08-17T17:47:58.819Z,4.10
2022-08-17T17:50:37.037Z,3.70
2022-08-17T17:53:13.168Z,3.70
2022-08-17T17:56:29.662Z,3.50
2022-08-17T17:59:43.294Z,3.70
2022-08-17T18:02:51.956Z,4.40
2022-08-17T18:05:40.421Z,4.40
2022-08-17T18:08:19.332Z,4.30
2022-08-17T18:10:55.389Z,4.60
2022-08-17T18:13:40.684Z,4.20
2022-08-17T18:16:13.623Z,5.00
2022-08-17T18:18:44.799Z,5.40
2022-08-17T18:21:21.788Z,4.30
2022-08-17T18:24:03.831Z,5.00
2022-08-17T18:26:48.453Z,4.70
2022-08-17T18:29:26.522Z,5.20
2022-08-17T18:32:15.991Z,4.80
2022-08-17T18:34:47.931Z,4.60
2022-08-17T18:37:41.431Z,4.20
2022-08-17T18:40:17.867Z,4.80
2022-08-17T18:42:50.675Z,4.70
2022-08-17T18:45:41.233Z,4.80
2022-08-17T18:48:21.344Z,4.80
2022-08-17T18:50:48.682Z,4.90
2022-08-17T18:53:33.957Z,5.60
2022-08-17T18:56:26.588Z,5.10
2022-08-17T18:58:53.420Z,6.90
2022-08-17T19:01:22.002Z,6.20
2022-08-17T19:04:25.996Z,6.50
2022-08-17T19:07:23.465Z,5.40
2022-08-17T19:09:58.910Z,5.20
2022-08-17T19:12:35.371Z,5.10
2022-08-17T19:15:03.386Z,4.30
2022-08-17T19:17:41.052Z,4.40
2022-08-17T19:20:12.742Z,4.60
2022-08-17T19:22:49.956Z,5.30
2022-08-17T19:25:27.098Z,5.20
2022-08-17T19:28:15.371Z,4.50
2022-08-17T19:30:55.087Z,4.80
2022-08-17T19:33:22.583Z,5.10
2022-08-17T19:39:55.725Z,4.40
2022-08-17T19:42:37.384Z,4.60
2022-08-17T19:45:11.195Z,4.50
2022-08-17T19:48:03.395Z,4.30
2022-08-17T19:51:01.793Z,4.10
2022-08-17T19:54:02.066Z,4.00
2022-08-17T19:56:55.926Z,4.80
2022-08-17T20:00:02.473Z,4.30
2022-08-17T20:03:06.220Z,4.40
2022-08-17T20:06:11.026Z,4.40
2022-08-17T20:08:52.797Z,4.00
2022-08-17T20:11:31.789Z,4.10
2022-08-17T20:14:14.847Z,4.10
2022-08-17T20:16:42.312Z,4.50
2022-08-17T20:19:22.305Z,4.20
2022-08-17T20:22:18.094Z,4.20
2022-08-17T20:24:50.808Z,4.40
2022-08-17T20:27:31.561Z,4.50
2022-08-17T20:30:10.578Z,4.50
2022-08-17T20:32:55.736Z,4.50
2022-08-17T20:35:27.267Z,4.70
2022-08-17T20:38:02.406Z,4.40
2022-08-17T20:40:39.932Z,4.50
2022-08-17T20:43:37.663Z,4.60
2022-08-17T20:46:13.121Z,5.10
2022-08-17T20:48:46.996Z,4.60
2022-08-17T20:51:27.688Z,4.60
2022-08-17T20:53:54.433Z,4.30
2022-08-17T20:56:50.059Z,4.90
2022-08-17T20:59:26.351Z,4.40
2022-08-17T21:02:27.007Z,4.40
2022-08-17T21:04:57.451Z,4.50
2022-08-17T21:07:29.387Z,4.40
2022-08-17T21:10:36.574Z,4.00
2022-08-17T21:13:15.563Z,4.40
2022-08-17T21:15:42.504Z,4.20
2022-08-17T21:18:23.523Z,3.90
2022-08-17T21:21:02.615Z,3.60
2022-08-17T21:23:40.891Z,3.60
2022-08-17T21:26:30.402Z,3.50
2022-08-17T21:29:31.889Z,3.50
2022-08-17T21:31:59.471Z,3.60
2022-08-17T21:34:43.471Z,3.50
2022-08-17T21:37:23.700Z,3.90
2022-08-17T21:40:15.285Z,3.60
2022-08-17T21:42:58.532Z,3.00
2022-08-17T21:45:30.645Z,3.60
2022-08-17T21:48:32.465Z,3.00
2022-08-17T21:51:13.111Z,3.50
2022-08-17T21:53:50.733Z,3.40
2022-08-17T21:56:34.203Z,3.20
2022-08-17T21:59:14.735Z,3.00
2022-08-17T22:01:43.365Z,3.00
2022-08-17T22:04:11.752Z,3.20
2022-08-17T22:06:56.479Z,3.40
2022-08-17T22:09:27.000Z,3.50
2022-08-17T22:11:59.878Z,3.20
2022-08-17T22:14:52.868Z,3.50
2022-08-17T22:17:35.736Z,3.20
2022-08-17T22:20:21.406Z,3.10
2022-08-17T22:23:09.626Z,3.40
2022-08-17T22:25:39.868Z,3.60
2022-08-17T22:28:12.389Z,3.30
2022-08-17T22:30:58.798Z,3.30
2022-08-17T22:33:49.199Z,3.50
2022-08-17T22:36:25.275Z,3.90
2022-08-17T22:39:00.766Z,3.40
2022-08-17T22:41:32.466Z,3.60
2022-08-17T22:44:21.385Z,3.30
2022-08-17T22:47:18.981Z,3.50
2022-08-17T22:49:53.189Z,3.40
2022-08-17T22:52:57.625Z,3.30
2022-08-17T22:55:44.667Z,3.00
2022-08-17T22:58:37.509Z,3.30
2022-08-17T23:01:32.783Z,3.40
2022-08-17T23:04:10.129Z,3.50
2022-08-17T23:06:39.364Z,3.30
2022-08-17T23:09:08.148Z,3.60
2022-08-17T23:11:49.734Z,3.00
2022-08-17T23:14:19.978Z,3.50
2022-08-17T23:16:53.375Z,2.90
2022-08-17T23:19:21.650Z,3.00
2022-08-17T23:21:54.770Z,3.00
2022-08-17T23:24:25.499Z,3.50
2022-08-17T23:26:53.109Z,2.90
2022-08-17T23:29:23.243Z,3.20
2022-08-17T23:31:51.494Z,3.00
2022-08-17T23:34:19.112Z,3.30
2022-08-17T23:36:52.435Z,3.40
2022-08-17T23:39:27.436Z,2.80
2022-08-17T23:41:58.835Z,3.40
2022-08-17T23:44:26.996Z,3.00
2022-08-17T23:46:53.949Z,3.30
2022-08-17T23:49:21.232Z,3.50
2022-08-17T23:51:49.143Z,3.60
2022-08-17T23:54:44.002Z,3.30
2022-08-17T23:57:17.304Z,3.30
2022-08-17T23:59:44.718Z,3.70
